Time;durP1;ratioP1;P1;durP2;ratioP2;P2;SDS_P1;SDS_P2;PMS_P1;PMS_P2;Temp;Humidity;BMP_temperature;BMP_pressure;BME280_temperature;BME280_humidity;BME280_pressure;Samples;Min_cycle;Max_cycle;Signal;HPM_P1;HPM_P2
2021/05/12 09:29:01;;;;;;;11.53;3.20;;;;;;;26.54;45.28;97979.16;4390559;78;55268;-82
2021/05/12 09:35:03;;;;;;;5.70;2.70;;;;;;;27.14;44.81;97982.75;4106810;86;21132;-83
2021/05/12 09:41:12;;;;;;;12.63;3.25;;;;;;;27.59;43.22;97973.78;4088883;86;21120;-82
2021/05/12 09:47:29;;;;;;;3.95;2.52;;;;;;;28.04;42.43;97965.27;4081898;86;21728;-83
2021/05/12 09:53:31;;;;;;;5.90;2.60;;;;;;;28.47;40.58;97953.72;4137590;85;21042;-82
2021/05/12 09:59:33;;;;;;;6.30;2.25;;;;;;;28.97;38.96;97945.73;4147979;85;21638;-84
2021/05/12 10:05:53;;;;;;;3.58;1.92;;;;;;;29.57;37.67;97949.34;4096365;86;21104;-81
2021/05/12 10:12:04;;;;;;;8.20;2.60;;;;;;;29.87;35.42;97946.60;4096339;86;21467;-82
2021/05/12 10:18:11;;;;;;;4.95;2.20;;;;;;;29.99;34.12;97947.25;4110473;83;38099;-83
2021/05/12 10:24:13;;;;;;;3.85;2.33;;;;;;;29.63;34.89;97946.56;4116269;86;21061;-83
2021/05/12 10:30:16;;;;;;;6.08;2.45;;;;;;;29.72;34.13;97934.21;4167416;84;21082;-83
2021/05/12 10:36:19;;;;;;;2.62;1.80;;;;;;;29.77;34.29;97933.39;4157318;84;21550;-83
2021/05/12 10:43:35;;;;;;;2.22;1.65;;;;;;;30.01;32.73;97933.35;4100679;86;21416;-83
2021/05/12 10:49:24;;;;;;;4.03;1.85;;;;;;;30.12;32.00;97929.76;4081088;86;21068;-82
2021/05/12 10:55:31;;;;;;;5.85;1.80;;;;;;;30.53;30.20;97916.15;4065053;86;21050;-82
2021/05/12 11:01:48;;;;;;;3.22;1.62;;;;;;;30.94;30.17;97915.05;4117982;85;21596;-83
2021/05/12 11:08:14;;;;;;;5.72;1.82;;;;;;;31.13;29.07;97903.05;4123765;85;21673;-83
2021/05/12 11:14:21;;;;;;;;;;;;;;;31.55;29.20;97911.31;4154576;84;21108;-83
2021/05/12 11:20:25;;;;;;;8.00;1.57;;;;;;;32.19;27.52;97894.88;4147902;84;20263;-83
2021/05/12 11:26:46;;;;;;;4.80;1.70;;;;;;;32.73;28.55;97892.11;4165799;83;21146;-83
2021/05/12 11:32:34;;;;;;;3.08;1.80;;;;;;;33.01;28.18;97883.75;4195263;83;21668;-85
2021/05/12 11:38:37;;;;;;;4.58;1.82;;;;;;;33.27;26.47;97876.50;4201727;83;21191;-87
2021/05/12 11:44:38;;;;;;;6.83;2.33;;;;;;;33.32;26.46;97867.73;4194112;83;21092;-83
2021/05/12 11:50:45;;;;;;;4.70;1.90;;;;;;;33.25;26.51;97864.17;4194827;83;21577;-83
2021/05/12 11:56:50;;;;;;;6.00;2.80;;;;;;;33.40;25.87;97854.41;4208582;83;21046;-83
2021/05/12 12:03:02;;;;;;;7.00;1.90;;;;;;;33.12;26.30;97848.00;4197436;83;21053;-83
2021/05/12 12:09:03;;;;;;;3.92;1.87;;;;;;;32.88;26.66;97839.88;4214891;83;21414;-82
2021/05/12 12:15:08;;;;;;;4.67;1.72;;;;;;;32.84;26.14;97823.09;4194869;83;21581;-82
2021/05/12 12:21:12;;;;;;;7.40;1.80;;;;;;;32.30;26.35;97828.09;4196534;83;21085;-84
2021/05/12 12:27:13;;;;;;;3.08;1.85;;;;;;;32.12;26.26;97814.88;4189004;83;21108;-84
2021/05/12 12:33:20;;;;;;;7.12;2.50;;;;;;;31.66;25.90;97812.73;4156107;84;21108;-82
2021/05/12 12:39:46;;;;;;;5.08;2.20;;;;;;;31.32;26.79;97801.31;4160708;84;22331;-84
2021/05/12 12:45:47;;;;;;;4.87;2.00;;;;;;;31.02;27.42;97800.08;4117001;86;21159;-83
2021/05/12 12:51:48;;;;;;;7.50;1.90;;;;;;;30.52;27.94;97785.38;4110576;86;21041;-84
2021/05/12 12:58:02;;;;;;;3.02;1.67;;;;;;;30.36;27.84;97790.00;4112542;86;21700;-83
2021/05/12 13:04:19;;;;;;;6.08;2.12;;;;;;;30.20;27.49;97779.72;4187062;84;21168;-83
2021/05/12 13:10:36;;;;;;;9.18;2.83;;;;;;;30.02;27.98;97770.58;4111903;85;21092;-82
2021/05/12 13:16:37;;;;;;;6.78;2.65;;;;;;;30.13;29.47;97765.44;4170240;84;21053;-83
2021/05/12 13:22:39;;;;;;;6.58;2.30;;;;;;;30.19;29.47;97760.47;4190158;84;21038;-82
2021/05/12 13:28:40;;;;;;;4.35;1.75;;;;;;;29.99;29.74;97756.12;4095854;86;21177;-82
2021/05/12 13:34:41;;;;;;;6.08;2.33;;;;;;;29.33;29.66;97753.41;4166018;84;22637;-82
2021/05/12 13:40:43;;;;;;;3.95;2.20;;;;;;;28.84;29.82;97751.23;4176211;84;21053;-83
2021/05/12 13:46:45;;;;;;;8.63;2.10;;;;;;;29.10;30.24;97738.80;4092827;86;21136;-82
2021/05/12 13:52:52;;;;;;;7.72;2.27;;;;;;;29.28;30.15;97728.88;4169363;84;21184;-84
2021/05/12 14:05:10;;;;;;;2.40;1.47;;;;;;;29.54;28.41;97707.92;4091243;86;21577;-82
2021/05/12 14:11:11;;;;;;;7.37;2.08;;;;;;;29.54;27.74;97694.57;4160869;84;21058;-85
2021/05/12 14:17:16;;;;;;;8.45;2.25;;;;;;;29.49;28.03;97698.22;4091586;86;21085;-85
2021/05/12 14:23:17;;;;;;;7.42;1.85;;;;;;;29.46;29.71;97690.83;4090314;86;21156;-84
2021/05/12 14:29:19;;;;;;;7.20;1.95;;;;;;;29.31;29.38;97690.53;4091470;86;21116;-82
2021/05/12 14:35:21;;;;;;;8.65;2.10;;;;;;;29.15;29.52;97685.86;4163371;84;21072;-82
2021/05/12 14:41:23;;;;;;;7.17;1.90;;;;;;;29.11;29.93;97676.95;4124322;85;21693;-83
2021/05/12 14:47:25;;;;;;;4.70;1.87;;;;;;;29.04;30.46;97676.10;4152914;84;21073;-82
2021/05/12 14:53:32;;;;;;;4.50;2.22;;;;;;;28.91;30.99;97678.17;4136706;84;21033;-83
2021/05/12 14:59:57;;;;;;;9.95;2.65;;;;;;;28.79;30.79;97673.97;4158832;84;21045;-85
2021/05/12 15:06:10;;;;;;;8.25;3.22;;;;;;;28.44;31.23;97662.03;4145592;84;21073;-85
2021/05/12 15:11:57;;;;;;;9.25;2.58;;;;;;;28.28;31.20;97658.72;4158514;84;21124;-83
2021/05/12 15:17:58;;;;;;;6.15;2.30;;;;;;;27.91;31.15;97665.56;4090728;86;22113;-84
2021/05/12 15:24:00;;;;;;;7.05;2.72;;;;;;;27.48;31.78;97652.66;4091642;86;21064;-83
2021/05/12 15:30:03;;;;;;;6.12;2.10;;;;;;;27.30;32.00;97650.45;4172380;84;21638;-83
2021/05/12 15:36:06;;;;;;;4.87;2.00;;;;;;;27.10;32.40;97651.56;4131943;85;21652;-84
2021/05/12 15:42:07;;;;;;;9.68;2.33;;;;;;;26.95;32.57;97648.95;4148147;84;21348;-82
2021/05/12 15:48:13;;;;;;;3.83;2.40;;;;;;;26.69;33.21;97654.89;4151636;84;21073;-83
2021/05/12 15:54:15;;;;;;;4.10;2.08;;;;;;;26.48;33.40;97650.08;4150899;84;21616;-83
2021/05/12 16:00:17;;;;;;;10.88;1.90;;;;;;;26.30;33.61;97647.17;4174626;84;21064;-85
2021/05/12 16:06:18;;;;;;;5.35;2.08;;;;;;;26.07;33.45;97651.28;4130648;85;21096;-84
2021/05/12 16:12:22;;;;;;;8.55;1.77;;;;;;;25.94;32.93;97656.59;4151603;84;21078;-85
2021/05/12 16:18:23;;;;;;;8.83;2.02;;;;;;;25.82;32.92;97654.45;4033488;84;10000241;-82
2021/05/12 16:24:25;;;;;;;3.75;1.75;;;;;;;25.70;33.16;97643.73;4159317;84;21108;-83
2021/05/12 16:30:26;;;;;;;5.33;2.50;;;;;;;25.61;33.19;97639.75;4160235;84;22129;-82
2021/05/12 16:36:30;;;;;;;4.53;1.62;;;;;;;25.47;33.15;97635.14;4088468;86;21128;-83
2021/05/12 16:42:31;;;;;;;7.75;2.00;;;;;;;25.38;32.97;97636.16;4114495;85;21156;-84
2021/05/12 16:48:32;;;;;;;7.67;1.82;;;;;;;25.27;32.73;97648.71;4158181;84;21112;-84
2021/05/12 16:54:34;;;;;;;5.65;2.00;;;;;;;25.11;33.06;97636.81;4152348;84;21085;-82
2021/05/12 17:00:36;;;;;;;4.75;2.08;;;;;;;24.94;33.08;97637.40;4163219;84;21037;-82
2021/05/12 17:06:39;;;;;;;8.08;1.62;;;;;;;24.82;33.15;97635.05;4158224;84;21132;-82
2021/05/12 17:12:45;;;;;;;4.80;1.95;;;;;;;24.72;33.34;97629.53;4146401;84;21097;-83
2021/05/12 17:18:46;;;;;;;9.85;2.08;;;;;;;24.59;33.57;97625.13;4151706;84;21061;-82
2021/05/12 17:24:48;;;;;;;13.60;2.45;;;;;;;24.46;33.78;97626.19;4157956;84;21704;-82
2021/05/12 17:30:50;;;;;;;5.67;2.40;;;;;;;24.37;34.26;97628.42;4195558;84;21103;-83
2021/05/12 17:36:52;;;;;;;7.00;2.75;;;;;;;24.16;34.50;97629.20;4158108;84;21048;-83
2021/05/12 17:42:55;;;;;;;8.88;2.52;;;;;;;24.05;34.51;97624.94;4182518;84;21958;-81
2021/05/12 17:48:58;;;;;;;8.50;4.05;;;;;;;23.95;34.61;97625.56;4168872;84;21096;-83
2021/05/12 17:55:00;;;;;;;12.82;4.75;;;;;;;23.82;34.69;97624.58;4160067;84;21064;-82
2021/05/12 18:01:01;;;;;;;15.85;6.42;;;;;;;23.72;34.68;97630.84;4168545;84;21083;-82
2021/05/12 18:07:03;;;;;;;11.45;5.87;;;;;;;23.51;34.90;97632.20;4177571;84;21124;-83
2021/05/12 18:19:16;;;;;;;14.45;5.20;;;;;;;23.11;35.53;97642.78;4164813;84;21200;-82
2021/05/12 18:25:17;;;;;;;10.82;4.45;;;;;;;22.86;36.07;97647.07;4166849;84;21676;-83
2021/05/12 18:31:18;;;;;;;11.33;3.20;;;;;;;22.64;36.52;97648.80;4172728;84;21144;-82
2021/05/12 18:37:33;;;;;;;12.07;2.87;;;;;;;22.44;36.86;97652.28;4179680;84;21401;-83
2021/05/12 18:43:26;;;;;;;6.43;2.97;;;;;;;22.24;37.24;97658.48;4175596;84;21973;-82
2021/05/12 18:49:28;;;;;;;11.73;3.65;;;;;;;22.07;37.50;97663.78;4173871;84;21096;-82
2021/05/12 18:55:30;;;;;;;6.40;3.45;;;;;;;21.94;37.77;97672.31;4174047;84;21623;-82
2021/05/12 19:01:31;;;;;;;10.75;4.00;;;;;;;21.83;37.96;97686.83;4182879;84;21592;-83
2021/05/12 19:07:45;;;;;;;7.90;3.35;;;;;;;21.72;38.22;97689.39;4167587;84;21096;-83
2021/05/12 19:20:17;;;;;;;11.00;4.22;;;;;;;21.38;38.73;97691.41;4175074;84;21101;-83
2021/05/12 19:26:19;;;;;;;10.70;4.08;;;;;;;21.18;39.10;97694.06;4181754;84;21079;-82
2021/05/12 19:44:53;;;;;;;9.70;3.77;;;;;;;20.74;40.59;97722.31;4218009;83;21093;-82
2021/05/12 19:50:54;;;;;;;11.75;3.50;;;;;;;20.52;41.76;97751.00;4199499;83;21081;-84
2021/05/12 20:03:11;;;;;;;9.90;4.08;;;;;;;20.32;43.84;97772.41;4200211;83;21104;-83
2021/05/12 20:09:32;;;;;;;8.83;3.47;;;;;;;20.29;44.83;97777.52;4205320;83;21077;-82
2021/05/12 20:15:26;;;;;;;7.65;3.52;;;;;;;20.13;46.35;97793.11;4196274;83;21093;-83
2021/05/12 20:21:28;;;;;;;8.88;3.85;;;;;;;19.82;47.84;97787.00;4202842;83;21092;-83
2021/05/12 20:27:30;;;;;;;7.17;4.00;;;;;;;19.58;51.04;97792.42;4198724;83;21608;-83
2021/05/12 20:39:51;;;;;;;14.50;5.67;;;;;;;18.96;54.76;97795.27;4213415;83;21060;-83
2021/05/12 20:45:52;;;;;;;10.35;5.53;;;;;;;18.65;56.92;97793.18;4193001;83;21050;-83
2021/05/12 20:51:55;;;;;;;5.47;4.30;;;;;;;18.44;55.26;97787.86;4211791;83;21677;-84
2021/05/12 20:57:56;;;;;;;8.58;4.37;;;;;;;18.35;57.74;97787.02;4192125;83;21137;-83
2021/05/12 21:03:57;;;;;;;8.48;5.08;;;;;;;17.97;56.64;97781.74;4213584;83;21120;-82
2021/05/12 21:10:00;;;;;;;8.03;5.75;;;;;;;17.78;57.87;97792.53;4208966;83;21446;-83
2021/05/12 21:16:03;;;;;;;9.43;5.37;;;;;;;17.66;58.64;97788.45;4209661;83;21060;-82
2021/05/12 21:22:05;;;;;;;8.65;4.40;;;;;;;17.55;60.09;97792.20;4231501;83;21121;-83
2021/05/12 21:28:06;;;;;;;7.92;5.05;;;;;;;17.43;60.07;97791.63;4212134;82;21213;-82
2021/05/12 21:34:07;;;;;;;9.98;6.15;;;;;;;17.35;62.36;97785.58;4177912;83;21628;-82
2021/05/12 21:40:09;;;;;;;10.13;4.92;;;;;;;17.15;61.12;97782.30;4221993;83;21092;-82
2021/05/12 21:46:11;;;;;;;6.80;4.65;;;;;;;17.02;61.75;97781.59;4203673;83;21092;-84
2021/05/12 21:52:12;;;;;;;8.08;4.95;;;;;;;17.11;61.95;97773.37;4206270;83;21164;-83
2021/05/12 21:58:13;;;;;;;8.05;5.83;;;;;;;17.15;62.31;97771.24;4206936;83;22458;-82
2021/05/12 22:04:18;;;;;;;12.63;6.90;;;;;;;16.88;63.26;97780.05;4200130;83;21617;-83
2021/05/12 22:23:04;;;;;;;12.93;8.85;;;;;;;16.46;65.26;97774.52;4196483;83;21108;-83
2021/05/12 22:35:27;;;;;;;11.08;8.18;;;;;;;16.38;66.16;97761.36;4157680;84;21617;-82
2021/05/12 22:41:28;;;;;;;13.32;8.08;;;;;;;16.30;66.40;97748.98;4113648;86;21069;-82
2021/05/12 22:47:30;;;;;;;10.08;6.80;;;;;;;16.32;66.84;97741.80;4257694;83;21068;-84
2021/05/12 22:53:32;;;;;;;11.45;9.15;;;;;;;16.38;67.06;97739.27;4249105;83;21056;-83
2021/05/12 22:59:34;;;;;;;15.53;8.23;;;;;;;16.37;67.39;97739.08;4243558;83;21084;-83
2021/05/12 23:05:35;;;;;;;14.40;9.98;;;;;;;16.21;67.32;97741.36;4182530;84;21088;-82
2021/05/12 23:11:37;;;;;;;14.47;9.28;;;;;;;16.13;67.96;97739.27;4164545;84;21999;-83
2021/05/12 23:17:38;;;;;;;10.18;8.15;;;;;;;16.02;68.37;97734.05;4158982;84;21108;-83
2021/05/12 23:23:45;;;;;;;14.87;11.50;;;;;;;15.81;68.96;97725.05;4151804;84;21570;-83
2021/05/12 23:29:42;;;;;;;16.70;9.98;;;;;;;16.04;69.28;97724.73;4159006;84;21095;-87
2021/05/12 23:35:44;;;;;;;15.58;10.55;;;;;;;15.98;69.60;97718.82;4119796;86;21985;-85
2021/05/12 23:41:49;;;;;;;13.72;11.53;;;;;;;15.97;70.17;97715.91;4254523;83;21084;-84
2021/05/12 23:47:49;;;;;;;13.78;11.08;;;;;;;16.09;70.58;97707.63;4251200;83;21120;-84
2021/05/12 23:53:52;;;;;;;16.95;11.35;;;;;;;16.20;70.53;97701.17;4251448;83;21096;-83
2021/05/12 23:59:54;;;;;;;14.28;9.45;;;;;;;16.30;70.73;97697.28;4248638;83;21080;-87
